• Join FlightAware (Why Join?)
  • Login
  • US Flag 
05:35PM EDT


 

Airport Tracker/Info


-or-


 

Live Flight TrackerFlight Track Log ✈ DAL2352 ✈ 12-Jul-2013 ✈ KALB - KATL

Flight Track Log - Related Links

Times and Time Zones

All times are in EDT time to prevent confusion due to time zone crossing. See the DAL2352 flight status page for this flight to view local times or setup timezone preferences in your user account.

Time Position Orientation Groundspeed Altitude Reporting Facility
EDT Latitude Longitude Course Direction KTS MPH feet Rate Location/Type
06:20AM 42.7714 -73.8092 180° South 141 162 1,500  Level Boston Center
06:21AM 42.8086 -73.8381 330° Northwest 219 252 2,300 1,920 Climbing Boston Center
06:22AM 42.8619 -73.9158 313° West 288 331 5,000 2,760 Climbing Boston Center
06:22AM 42.8906 -73.9478 321° Northwest 293 337 6,600 2,640 Climbing Boston Center
06:23AM 42.5186 -74.1242 200° South  Level Estimated
06:23AM 42.9481 -74.0228 316° Northwest 293 337 9,100  Level Boston Center
06:24AM 42.4416 -74.2311 198° South  Level Estimated
06:24AM 42.9869 -74.0722 317° Northwest 287 330 11,500  Level Boston Center
06:25AM 42.3645 -74.3377 200° South  Level Estimated
06:25AM 42.9664 -74.1881 256° West 237 273 13,600  Level Boston Center
06:26AM 42.2873 -74.4441 180° South  Level Estimated
06:26AM 42.8861 -74.2622 214° Southwest 307 353 14,600  Level Boston Center
06:27AM 42.7836 -74.2789 187° South 338 389 15,800 1,500 Climbing Boston Center
06:28AM 42.6719 -74.2275 161° South 394 453 17,700 1,560 Climbing Boston Center
06:29AM 42.5642 -74.1794 162° South 427 491 19,000 1,500 Climbing Boston Center
06:30AM 42.4503 -74.1311 163° South 438 504 20,700 1,620 Climbing Boston Center
06:31AM 42.3156 -74.0742 163° South 450 518 22,300 1,440 Climbing Boston Center
06:32AM 42.1892 -74.0400 169° South 457 526 23,600 2,460 Climbing Boston Center
06:33AM 42.0658 -74.0481 183° South 457 526 27,300 2,760 Climbing Boston Center
06:34AM 41.9511 -74.0536 182° South 438 504 29,200 1,500 Climbing Boston Center
06:35AM 41.8428 -74.0619 183° South 416 479 30,400 960 Climbing Boston Center
06:36AM 41.7486 -74.0792 188° South 398 458 31,200 900 Climbing Boston Center
06:38AM 41.5936 -74.1772 205° Southwest 412 474 32,800 960 Climbing New York Center
06:39AM 41.5064 -74.2419 209° Southwest 381 438 33,700 540 Climbing New York Center
06:40AM 41.4150 -74.3036 207° Southwest 376 433 34,000 120 Climbing New York Center
06:41AM 41.3064 -74.3753 206° Southwest 384 442 34,000  Level New York Center
06:42AM 41.2108 -74.4419 208° Southwest 391 450 34,000  Level New York Center
06:43AM 41.1131 -74.5028 205° Southwest 396 456 34,000  Level New York Center
06:44AM 41.0317 -74.5753 214° Southwest 396 456 34,000  Level New York Center
06:45AM 40.9433 -74.6636 217° Southwest 401 461 34,000  Level New York Center
06:46AM 40.8531 -74.7489 216° Southwest 401 461 34,000  Level New York Center
06:47AM 40.7625 -74.8342 216° Southwest 407 468 34,000  Level New York Center
06:48AM 40.6742 -74.9192 216° Southwest 402 463 34,000  Level New York Center
06:49AM 40.5856 -75.0067 217° Southwest 402 463 34,000  Level New York Center
06:50AM 40.5108 -75.1114 227° Southwest 396 456 34,000  Level New York Center
06:51AM 40.4400 -75.2242 230° Southwest 396 456 34,000  Level New York Center
06:52AM 40.3733 -75.3314 231° Southwest 401 461 34,000  Level New York Center
06:53AM 40.3025 -75.4411 230° Southwest 395 455 34,000  Level New York Center
06:54AM 40.2314 -75.5506 230° Southwest 395 455 34,000  Level New York Center
06:55AM 40.1722 -75.6686 237° Southwest 395 455 34,000  Level New York Center
06:56AM 40.1153 -75.7869 238° Southwest 395 455 34,000  Level New York Center
06:57AM 40.0519 -75.9044 235° Southwest 395 455 34,000  Level New York Center
06:58AM 39.9844 -76.0158 232° Southwest 395 455 34,000  Level New York Center
06:59AM 39.9106 -76.1267 229° Southwest 400 460 34,000  Level New York Center
07:00AM 39.8319 -76.2478 230° Southwest 405 466 34,000  Level New York Center
07:02AM 39.7106 -76.4358 230° Southwest 404 465 34,000  Level Washington Center
07:03AM 39.6453 -76.5319 229° Southwest 403 464 34,000  Level Washington Center
07:04AM 39.5736 -76.6442 230° Southwest 408 470 34,000  Level Washington Center
07:05AM 39.5039 -76.7533 230° Southwest 408 470 34,000  Level Washington Center
07:06AM 39.4172 -76.8836 229° Southwest 402 463 34,000  Level Washington Center
07:07AM 39.3450 -76.9925 229° Southwest 402 463 34,000  Level Washington Center
07:08AM 39.2728 -77.1036 230° Southwest 402 463 34,000  Level Washington Center
07:09AM 39.2006 -77.2119 229° Southwest 402 463 34,000  Level Washington Center
07:10AM 39.1283 -77.3175 229° Southwest 402 463 34,000 -480 Level Washington Center
07:11AM 39.0558 -77.4253 229° Southwest 402 463 33,100 -1,500 Descending Washington Center
07:12AM 38.9811 -77.5356 229° Southwest 402 463 31,100 -1,560 Descending Washington Center
07:13AM 38.8933 -77.6639 229° Southwest 429 494 30,000 -600 Descending Washington Center
07:14AM 38.8336 -77.7556 230° Southwest 429 494 30,000  Level Washington Center
07:15AM 38.7456 -77.8861 229° Southwest 436 502 30,000  Level Washington Center
07:16AM 38.6619 -78.0083 229° Southwest 436 502 30,000  Level Washington Center
07:17AM 38.5867 -78.1228 230° Southwest 431 496 30,000  Level Washington Center
07:18AM 38.5111 -78.2344 229° Southwest 426 490 30,000  Level Washington Center
07:19AM 38.4317 -78.3456 228° Southwest 426 490 30,000  Level Washington Center
07:20AM 38.3539 -78.4592 229° Southwest 426 490 30,000  Level Washington Center
07:21AM 38.2761 -78.5725 229° Southwest 426 490 30,000  Level Washington Center
07:22AM 38.2042 -78.6858 231° Southwest 421 484 30,000  Level Washington Center
07:23AM 38.1328 -78.7858 228° Southwest 421 484 30,000  Level Washington Center
07:24AM 38.0569 -78.8936 228° Southwest 426 490 30,000  Level Washington Center
07:25AM 37.9789 -79.0033 228° Southwest 426 490 30,000  Level Washington Center
07:26AM 37.9006 -79.1131 228° Southwest 426 490 30,000  Level Washington Center
07:27AM 37.8156 -79.2300 227° Southwest 421 484 30,000  Level Washington Center
07:28AM 37.7372 -79.3364 227° Southwest 421 484 30,000  Level Washington Center
07:29AM 37.6742 -79.4225 227° Southwest 428 493 30,000 600 Level Washington Center
07:30AM 37.5800 -79.5542 228° Southwest 428 493 31,200 960 Climbing Washington Center
07:31AM 37.5144 -79.6450 228° Southwest 416 479 32,000 360 Climbing Washington Center
07:32AM 37.4292 -79.7633 228° Southwest 411 473 32,000  Level Washington Center
07:33AM 37.3544 -79.8664 228° Southwest 411 473 32,000  Level Washington Center
07:34AM 37.2800 -79.9692 228° Southwest 411 473 32,000  Level Washington Center
07:36AM 37.1317 -80.1650 226° Southwest 421 484 32,000  Level Atlanta Center
07:37AM 37.0656 -80.2542 227° Southwest 416 479 32,000  Level Atlanta Center
07:38AM 36.9894 -80.3567 227° Southwest 405 466 32,000  Level Atlanta Center
07:39AM 36.9153 -80.4561 227° Southwest 405 466 32,000  Level Atlanta Center
07:40AM 36.8408 -80.5556 227° Southwest 399 459 32,000  Level Atlanta Center
07:41AM 36.7564 -80.6603 225° Southwest 399 459 32,000  Level Atlanta Center
07:42AM 36.6919 -80.7508 228° Southwest 394 453 32,000  Level Atlanta Center
07:43AM 36.6175 -80.8522 228° Southwest 394 453 32,000  Level Atlanta Center
07:44AM 36.5219 -80.9414 217° Southwest 400 460 32,000  Level Atlanta Center
07:45AM 36.4319 -81.0197 215° Southwest 400 460 32,000  Level Atlanta Center
07:46AM 36.3489 -81.1131 222° Southwest 405 466 32,000  Level Atlanta Center
07:47AM 36.2719 -81.2161 227° Southwest 405 466 32,000  Level Atlanta Center
07:48AM 36.1969 -81.3167 227° Southwest 410 472 32,000  Level Atlanta Center
07:49AM 36.1222 -81.4194 228° Southwest 400 460 32,000  Level Atlanta Center
07:50AM 36.0450 -81.5247 228° Southwest 400 460 32,000  Level Atlanta Center
07:51AM 35.9719 -81.6244 228° Southwest 400 460 32,000  Level Atlanta Center
07:52AM 35.8947 -81.7242 226° Southwest 395 455 32,000  Level Atlanta Center
07:53AM 35.8194 -81.8286 228° Southwest 401 461 32,000  Level Atlanta Center
07:54AM 35.7439 -81.9306 228° Southwest 401 461 32,000  Level Atlanta Center
07:55AM 35.6706 -82.0294 228° Southwest 396 456 32,000  Level Atlanta Center
07:56AM 35.5928 -82.1336 227° Southwest 396 456 32,000  Level Atlanta Center
07:57AM 35.5172 -82.2322 227° Southwest 401 461 32,000 -360 Level Atlanta Center
07:58AM 35.4394 -82.3333 227° Southwest 401 461 31,300 -1,140 Descending Atlanta Center
07:59AM 35.3717 -82.4239 227° Southwest 401 461 29,800 -1,980 Descending Atlanta Center
08:00AM 35.2897 -82.5300 227° Southwest 412 474 27,400 -1,440 Descending Atlanta Center
08:01AM 35.2117 -82.6331 227° Southwest 417 480 27,000 -240 Descending Atlanta Center
08:02AM 35.1356 -82.7308 226° Southwest 412 474 27,000  Level Atlanta Center
08:03AM 35.0553 -82.8361 227° Southwest 407 468 27,000 -120 Level Atlanta Center
08:04AM 34.9664 -82.9286 220° Southwest 419 482 26,800 -1,140 Descending Atlanta Center
08:05AM 34.8772 -83.0208 220° Southwest 428 493 24,800 -1,800 Descending Atlanta Center
08:06AM 34.7883 -83.1156 221° Southwest 428 493 23,200 -1,740 Descending Atlanta Center
08:07AM 34.7014 -83.2075 221° Southwest 428 493 21,400 -1,920 Descending Atlanta Center
08:08AM 34.6019 -83.3094 220° Southwest 433 498 19,400 -1,800 Descending Atlanta Center
08:09AM 34.5147 -83.4036 222° Southwest 433 498 17,900 -1,440 Descending Atlanta Center
08:11AM 34.3444 -83.5783 220° Southwest 416 479 15,100 -1,200 Descending Atlanta Center
08:12AM 34.2592 -83.6694 221° Southwest 409 471 14,300 -600 Descending Atlanta Center
08:13AM 34.1781 -83.7525 220° Southwest 404 465 14,000 -180 Descending Atlanta Center
08:14AM 34.0967 -83.8381 221° Southwest 399 459 14,000 -600 Level Atlanta Center
08:15AM 34.0156 -83.9236 221° Southwest 391 450 12,800 -1,020 Descending Atlanta Center
08:16AM 33.9361 -84.0089 222° Southwest 385 443 12,000 -420 Descending Atlanta Center
08:17AM 33.8653 -84.0864 222° Southwest 385 443 12,000  Level Atlanta Center
08:18AM 33.7667 -84.1500 208° Southwest 382 440 12,000  Level Atlanta TRACON
08:19AM 33.7333 -84.2667 251° West 334 384 12,000 -780 Level Atlanta TRACON
08:20AM 33.7333 -84.3500 270° West 294 338 10,600 -2,220 Descending Atlanta TRACON
08:21AM 33.7333 -84.4333 270° West 290 334 8,100 -2,640 Descending Atlanta TRACON
08:22AM 33.7333 -84.5333 270° West 271 312 5,600 -1,680 Descending Atlanta TRACON
08:23AM 33.7333 -84.6000 270° West 230 265 5,000 -360 Descending Atlanta TRACON
08:24AM 33.7333 -84.6833 270° West 226 260 5,000  Level Atlanta TRACON
08:25AM 33.7333 -84.7500 270° West 227 261 5,000  Level Atlanta TRACON
08:25AM 33.7333 -84.8333 270° West 229 264 5,000  Level Atlanta TRACON
08:26AM 33.7000 -84.8833 231° Southwest 246 283 5,000  Level Atlanta TRACON
08:27AM 33.6500 -84.8500 151° Southeast 224 258 5,000  Level Atlanta TRACON
08:28AM 33.6500 -84.7833 90° East 189 217 5,000  Level Atlanta TRACON
08:29AM 33.6500 -84.7333 90° East 191 220 5,000 -180 Level Atlanta TRACON
08:30AM 33.6500 -84.6667 90° East 191 220 4,700 -720 Descending Atlanta TRACON
08:31AM 33.6500 -84.6000 90° East 185 213 3,600 -1,020 Descending Atlanta TRACON
08:32AM 33.6500 -84.5500 90° East 180 207 2,700 -900 Descending Atlanta TRACON
08:33AM 33.6500 -84.4833 90° East 149 171 1,900 -840 Descending Atlanta TRACON
08:35AM 33.6367 -84.4279 64° Northeast  Level Estimated
08:42AM 33.6367 -84.4279 64° Northeast  Level Estimated
08:43AM 33.6367 -84.4279 64° Northeast  Level Estimated